Time;durP1;ratioP1;P1;durP2;ratioP2;P2;SDS_P1;SDS_P2;PMS_P1;PMS_P2;Temp;Humidity;BMP_temperature;BMP_pressure;BME280_temperature;BME280_humidity;BME280_pressure;Samples;Min_cycle;Max_cycle;Signal;HPM_P1;HPM_P2
2021/10/25 00:02:25;;;;;;;;;40.00;37.67;;;;;8.17;74.43;101796.75;5034729;28;46041;-71
2021/10/25 00:04:50;;;;;;;;;50.33;41.00;;;;;8.09;74.40;101783.81;5033904;28;55482;-72
2021/10/25 00:07:16;;;;;;;;;50.00;40.50;;;;;8.15;74.26;101795.06;5034274;28;45450;-71
2021/10/25 00:09:41;;;;;;;;;43.75;37.00;;;;;8.12;74.54;101798.59;5034233;28;45594;-71
2021/10/25 00:12:07;;;;;;;;;45.00;40.00;;;;;8.11;74.93;101796.84;5034546;28;45567;-71
2021/10/25 00:14:32;;;;;;;;;41.00;36.00;;;;;8.09;74.67;101789.03;5014520;28;47544;-71
2021/10/25 00:16:58;;;;;;;;;47.25;39.00;;;;;8.05;74.55;101789.09;5034694;28;45414;-71
2021/10/25 00:19:23;;;;;;;;;40.00;36.50;;;;;8.04;74.52;101793.47;5016704;28;45839;-71
2021/10/25 00:21:49;;;;;;;;;43.75;36.50;;;;;7.99;74.51;101783.97;5034585;28;45522;-72
2021/10/25 00:24:15;;;;;;;;;51.00;38.00;;;;;7.98;74.61;101779.59;5034021;28;45910;-72
2021/10/25 00:26:40;;;;;;;;;37.75;34.75;;;;;8.05;74.87;101789.97;5034280;28;45376;-72
2021/10/25 00:29:05;;;;;;;;;41.75;35.25;;;;;7.96;75.06;101771.78;5033203;28;45537;-71
2021/10/25 00:31:32;;;;;;;;;40.50;38.75;;;;;8.05;74.93;101786.50;5034593;28;45305;-72
2021/10/25 00:33:57;;;;;;;;;35.00;29.50;;;;;8.03;74.88;101780.41;5034482;28;45443;-72
2021/10/25 00:36:23;;;;;;;;;37.50;34.25;;;;;7.99;74.65;101766.50;5033069;28;45800;-72
2021/10/25 00:38:48;;;;;;;;;38.25;34.25;;;;;7.94;74.99;101757.00;5033804;28;45582;-71
2021/10/25 00:41:14;;;;;;;;;32.00;30.67;;;;;7.92;74.97;101751.78;5034261;28;49079;-71
2021/10/25 00:43:39;;;;;;;;;37.50;32.00;;;;;7.95;75.08;101758.72;5033403;28;46120;-71
2021/10/25 00:46:08;;;;;;;;;33.75;26.00;;;;;7.98;74.98;101771.75;5033532;28;45395;-71
2021/10/25 00:48:34;;;;;;;;;32.50;27.00;;;;;7.97;75.12;101770.88;5033941;28;45702;-71
2021/10/25 00:51:01;;;;;;;;;37.25;32.00;;;;;7.92;74.99;101754.38;5033739;28;45372;-71
2021/10/25 00:53:27;;;;;;;;;26.50;25.00;;;;;7.92;75.22;101753.53;5033380;28;45415;-71
2021/10/25 00:55:53;;;;;;;;;34.25;31.75;;;;;7.97;75.33;101757.78;5033876;28;45271;-71
2021/10/25 00:58:18;;;;;;;;;35.50;29.25;;;;;7.98;75.31;101750.81;5033763;28;46589;-71
2021/10/25 01:00:44;;;;;;;;;36.50;29.75;;;;;8.02;75.41;101750.75;5033207;28;45808;-71
2021/10/25 01:03:09;;;;;;;;;40.75;31.75;;;;;8.04;75.36;101750.72;5033271;28;45941;-72
2021/10/25 01:05:34;;;;;;;;;31.00;26.25;;;;;7.99;75.12;101745.56;5015406;28;45890;-71
2021/10/25 01:08:02;;;;;;;;;28.50;23.00;;;;;8.06;75.37;101757.66;5033655;28;45555;-71
2021/10/25 01:10:28;;;;;;;;;36.00;27.00;;;;;8.11;75.30;101766.31;5034137;28;45399;-71
2021/10/25 01:12:55;;;;;;;;;33.75;31.00;;;;;8.14;75.24;101765.38;5033711;28;45430;-71
2021/10/25 01:15:21;;;;;;;;;25.00;24.75;;;;;8.12;75.08;101756.69;5032205;28;46115;-72
2021/10/25 01:17:53;;;;;;;;;33.25;27.25;;;;;8.18;75.29;101761.81;5033238;28;45408;-71
2021/10/25 01:20:18;;;;;;;;;32.25;27.75;;;;;8.18;75.60;101755.72;5033359;28;45469;-71
2021/10/25 01:22:44;;;;;;;;;31.50;29.75;;;;;8.23;75.82;101757.38;5033918;28;46214;-71
2021/10/25 01:25:09;;;;;;;;;27.00;22.50;;;;;8.29;75.36;101759.03;5033876;28;45179;-71
2021/10/25 01:27:35;;;;;;;;;26.25;22.75;;;;;8.25;75.61;101739.03;5034862;28;45310;-71
2021/10/25 01:30:00;;;;;;;;;29.00;25.25;;;;;8.39;75.26;101765.88;5036675;28;45354;-71
2021/10/25 01:32:25;;;;;;;;;27.00;23.75;;;;;8.44;75.40;101752.69;5036903;28;45272;-71
2021/10/25 01:34:51;;;;;;;;;33.50;26.50;;;;;8.49;75.48;101753.47;5031069;28;45362;-71
2021/10/25 01:37:16;;;;;;;;;31.75;26.50;;;;;8.58;75.40;101758.56;5037860;28;45221;-71
2021/10/25 01:39:42;;;;;;;;;34.00;25.00;;;;;8.62;75.45;101750.63;5016219;28;45603;-71
2021/10/25 01:42:07;;;;;;;;;24.75;23.75;;;;;8.70;75.52;101749.59;5018425;28;48165;-71
2021/10/25 01:44:34;;;;;;;;;32.00;26.75;;;;;8.81;75.65;101756.34;5036767;28;45305;-71
2021/10/25 01:47:00;;;;;;;;;28.75;22.00;;;;;8.91;75.45;101759.66;5036928;28;45627;-71
2021/10/25 01:49:26;;;;;;;;;30.00;23.25;;;;;8.99;75.37;101754.28;5036845;28;46084;-71
2021/10/25 01:51:51;;;;;;;;;29.50;25.75;;;;;9.06;75.74;101753.25;5036256;28;45554;-71
2021/10/25 01:54:17;;;;;;;;;28.00;23.75;;;;;9.12;75.52;101756.59;5036623;28;45564;-72
2021/10/25 01:56:42;;;;;;;;;22.25;22.00;;;;;9.17;75.13;101760.91;5016288;28;45927;-71
2021/10/25 01:59:08;;;;;;;;;28.25;23.00;;;;;9.16;75.60;101739.06;5036547;28;45437;-71
2021/10/25 02:01:34;;;;;;;;;24.00;21.00;;;;;9.23;75.44;101745.03;5036709;28;45320;-72
2021/10/25 02:04:03;;;;;;;;;22.25;17.25;;;;;9.28;75.11;101751.91;5036963;28;45476;-72
2021/10/25 02:06:28;;;;;;;;;27.25;21.75;;;;;9.31;75.83;101737.88;5015260;28;45515;-72
2021/10/25 02:08:53;;;;;;;;;22.75;22.00;;;;;9.34;75.70;101738.69;5036125;28;45728;-71
2021/10/25 02:11:19;;;;;;;;;26.25;22.25;;;;;9.39;75.38;101742.03;5036445;28;45508;-71
2021/10/25 02:13:45;;;;;;;;;23.00;21.50;;;;;9.45;75.12;101741.06;5036579;28;45593;-71
2021/10/25 02:16:11;;;;;;;;;26.50;22.25;;;;;9.43;74.63;101718.38;5036597;28;45722;-71
2021/10/25 02:18:37;;;;;;;;;22.75;21.00;;;;;9.50;74.08;101730.44;5035950;28;45612;-72
2021/10/25 02:21:03;;;;;;;;;23.00;20.25;;;;;9.55;74.14;101726.84;5036639;28;45578;-72
2021/10/25 02:23:28;;;;;;;;;22.75;22.75;;;;;9.54;74.10;101724.22;5035523;28;45368;-71
2021/10/25 02:25:53;;;;;;;;;25.75;22.00;;;;;9.62;74.08;101725.78;5018182;28;45434;-72
2021/10/25 02:28:20;;;;;;;;;27.25;22.25;;;;;9.66;74.65;101723.97;5035834;28;45544;-71
2021/10/25 02:30:46;;;;;;;;;28.75;23.25;;;;;9.70;74.42;101720.34;5035653;28;45977;-72
2021/10/25 02:33:11;;;;;;;;;23.25;21.00;;;;;9.72;74.39;101715.09;5036220;28;45512;-71
2021/10/25 02:35:36;;;;;;;;;27.25;22.50;;;;;9.76;74.48;101721.97;5036377;28;45438;-71
2021/10/25 02:38:03;;;;;;;;;22.25;22.00;;;;;9.74;74.43;101714.13;5035450;28;45736;-71
2021/10/25 02:40:30;;;;;;;;;22.75;20.75;;;;;9.82;74.56;101716.59;5035487;28;47852;-71
2021/10/25 02:42:56;;;;;;;;;21.75;19.50;;;;;9.84;74.50;101720.03;5035659;28;45876;-71
2021/10/25 02:45:23;;;;;;;;;26.25;22.00;;;;;9.88;74.54;101708.56;5035797;28;45482;-71
2021/10/25 02:47:48;;;;;;;;;22.75;20.75;;;;;9.90;74.23;101715.47;5035807;28;45363;-71
2021/10/25 02:50:15;;;;;;;;;25.25;20.50;;;;;9.92;74.40;101711.06;5035318;28;45581;-71
2021/10/25 02:52:40;;;;;;;;;25.00;23.00;;;;;9.96;73.52;101705.72;5035993;28;46336;-72
2021/10/25 02:55:06;;;;;;;;;20.25;18.75;;;;;9.99;73.38;101706.53;5035607;28;47847;-71
2021/10/25 02:57:32;;;;;;;;;24.50;20.50;;;;;9.98;73.23;101702.19;5034962;28;45663;-71
2021/10/25 02:59:57;;;;;;;;;23.50;21.00;;;;;9.98;73.41;101693.44;5035145;28;45466;-72
2021/10/25 03:02:23;;;;;;;;;20.50;19.00;;;;;9.96;73.54;101684.72;5017294;28;45320;-71
2021/10/25 03:04:48;;;;;;;;;23.25;21.25;;;;;10.06;73.38;101701.97;5017973;28;45388;-71
2021/10/25 03:07:13;;;;;;;;;27.25;19.75;;;;;10.07;73.26;101694.03;5036128;28;45443;-71
2021/10/25 03:09:40;;;;;;;;;23.00;22.25;;;;;10.09;73.48;101697.50;5034802;28;46992;-72
2021/10/25 03:12:06;;;;;;;;;19.75;19.00;;;;;10.11;74.01;101684.34;5034165;28;45651;-71
2021/10/25 03:14:31;;;;;;;;;20.75;18.25;;;;;10.11;73.05;101705.34;5034833;28;45538;-72
2021/10/25 03:16:57;;;;;;;;;18.25;18.25;;;;;10.15;73.09;101707.00;5035257;28;45418;-71
2021/10/25 03:19:23;;;;;;;;;21.00;18.50;;;;;10.13;72.86;101691.28;5035659;28;45966;-71
2021/10/25 03:21:49;;;;;;;;;20.75;20.75;;;;;10.12;72.99;101693.94;5015868;28;45420;-71
2021/10/25 03:24:15;;;;;;;;;20.50;19.00;;;;;10.16;72.55;101699.06;5035180;28;45660;-72
2021/10/25 03:26:40;;;;;;;;;25.00;20.75;;;;;10.15;72.50;101692.09;5034308;28;45407;-72
2021/10/25 03:29:06;;;;;;;;;23.25;20.00;;;;;10.18;72.53;101699.91;5034452;28;45317;-71
2021/10/25 03:31:31;;;;;;;;;23.75;19.25;;;;;10.19;72.73;101699.00;5016756;28;45519;-71
2021/10/25 03:33:56;;;;;;;;;30.25;22.25;;;;;10.17;72.78;101684.16;5035566;28;45436;-71
2021/10/25 03:36:26;;;;;;;;;20.00;17.25;;;;;10.17;72.34;101684.16;5035261;28;45499;-71
2021/10/25 03:38:52;;;;;;;;;23.00;21.50;;;;;10.16;72.33;101685.94;5034501;28;46164;-71
2021/10/25 03:41:24;;;;;;;;;18.25;16.25;;;;;10.18;72.04;101689.41;5016666;28;45494;-71
2021/10/25 03:43:55;;;;;;;;;23.75;20.25;;;;;10.22;71.94;101710.31;5033034;28;45642;-72
2021/10/25 03:51:18;;;;;;;;;20.50;17.75;;;;;10.24;72.35;101690.19;5033363;28;45600;-72
2021/10/25 04:25:40;;;;;;;;;22.25;19.25;;;;;10.16;72.74;101690.31;5034834;28;45364;-71
2021/10/25 04:28:19;;;;;;;;;22.25;16.50;;;;;10.16;72.88;101688.56;5034844;28;45383;-72
2021/10/25 04:30:51;;;;;;;;;20.25;17.50;;;;;10.18;72.96;101692.03;5033742;28;46320;-72
2021/10/25 04:33:17;;;;;;;;;23.00;19.75;;;;;10.16;72.66;101704.31;5033597;28;45431;-71
2021/10/25 04:35:42;;;;;;;;;19.75;17.25;;;;;10.13;72.99;101712.31;5034553;28;45743;-71
2021/10/25 04:38:07;;;;;;;;;23.67;18.67;;;;;10.11;73.32;101711.47;5034117;28;53376;-72
2021/10/25 04:40:33;;;;;;;;;22.25;17.75;;;;;10.10;73.71;101691.34;5034006;28;45525;-71
2021/10/25 04:42:59;;;;;;;;;19.50;17.75;;;;;10.05;73.63;101690.59;5034351;28;45594;-71
2021/10/25 04:45:24;;;;;;;;;21.50;19.00;;;;;10.08;73.57;101700.19;5016728;28;45486;-71
2021/10/25 04:47:52;;;;;;;;;25.75;19.00;;;;;10.06;73.97;101697.56;5033572;28;45416;-71
2021/10/25 04:50:18;;;;;;;;;22.50;20.50;;;;;10.03;74.14;101707.31;5033693;28;45471;-71
2021/10/25 04:52:43;;;;;;;;;22.50;19.75;;;;;9.95;73.92;101699.63;5033938;28;45356;-71
2021/10/25 04:55:09;;;;;;;;;26.33;19.67;;;;;9.89;74.43;101691.91;5033916;28;51763;-71
2021/10/25 04:57:34;;;;;;;;;25.25;22.00;;;;;9.76;74.74;101693.97;5033560;28;45426;-71
2021/10/25 05:00:00;;;;;;;;;15.25;15.25;;;;;9.83;74.81;101710.44;5014904;28;47970;-71
2021/10/25 05:02:25;;;;;;;;;22.75;19.75;;;;;9.80;74.94;101697.38;5033413;28;45501;-71
2021/10/25 05:04:51;;;;;;;;;21.25;17.75;;;;;9.74;75.21;101693.13;5034251;28;45398;-71
2021/10/25 05:07:16;;;;;;;;;25.33;19.33;;;;;9.73;75.22;101694.03;5034761;28;46254;-71
2021/10/25 05:09:42;;;;;;;;;21.50;20.75;;;;;9.78;75.63;101699.19;5033581;28;45423;-71
2021/10/25 05:12:13;;;;;;;;;22.25;20.00;;;;;9.71;75.54;101673.97;5033363;28;45352;-71
2021/10/25 05:14:42;;;;;;;;;19.00;18.25;;;;;9.75;75.29;101683.50;5033826;28;45399;-71
2021/10/25 05:17:07;;;;;;;;;28.50;18.00;;;;;9.76;75.99;101693.09;5033037;28;45526;-71
2021/10/25 05:19:33;;;;;;;;;16.75;16.75;;;;;9.79;76.25;101682.53;5033747;28;45551;-71
2021/10/25 05:21:58;;;;;;;;;23.00;18.75;;;;;9.81;76.13;101685.97;5034363;28;46455;-71
2021/10/25 05:24:24;;;;;;;;;24.50;19.25;;;;;9.81;75.88;101683.34;5016068;28;45390;-71
2021/10/25 05:26:49;;;;;;;;;18.50;17.00;;;;;9.79;76.25;101683.38;5030984;28;45478;-71
2021/10/25 05:29:14;;;;;;;;;23.75;18.75;;;;;9.82;76.18;101682.47;5015355;28;48015;-71
2021/10/25 05:31:40;;;;;;;;;18.75;16.50;;;;;9.81;76.86;101684.19;5034266;28;45568;-71
2021/10/25 05:34:05;;;;;;;;;15.25;14.50;;;;;9.84;76.59;101686.75;5033463;28;45501;-71
2021/10/25 05:36:31;;;;;;;;;21.25;17.75;;;;;9.78;76.70;101679.03;5033461;28;47278;-71
2021/10/25 05:38:56;;;;;;;;;21.50;15.25;;;;;9.84;77.00;101683.28;5033368;28;45970;-71
2021/10/25 05:41:24;;;;;;;;;24.25;18.50;;;;;9.85;77.13;101667.47;5032747;28;45391;-71
2021/10/25 05:43:49;;;;;;;;;24.75;16.75;;;;;9.87;76.65;101670.09;5033776;28;45455;-71
2021/10/25 05:46:14;;;;;;;;;24.25;22.00;;;;;9.87;76.61;101670.94;5034025;28;45398;-71
2021/10/25 05:48:40;;;;;;;;;27.50;22.00;;;;;9.85;77.01;101674.50;5032922;28;46105;-71
2021/10/25 05:51:06;;;;;;;;;23.50;19.00;;;;;9.84;76.53;101667.53;5032844;28;45408;-71
2021/10/25 05:53:31;;;;;;;;;20.75;18.50;;;;;9.83;77.00;101664.03;5033296;28;45845;-71
2021/10/25 05:55:58;;;;;;;;;23.25;19.25;;;;;9.78;76.89;101657.19;5032575;28;45485;-71
2021/10/25 05:58:23;;;;;;;;;18.75;16.75;;;;;9.83;77.04;101669.28;5033090;28;46051;-71
2021/10/25 06:00:56;;;;;;;;;24.00;16.75;;;;;9.80;77.23;101671.13;5033479;28;45774;-70
2021/10/25 06:03:27;;;;;;;;;21.50;18.50;;;;;9.80;77.47;101671.13;5033169;28;45778;-71
2021/10/25 06:05:52;;;;;;;;;28.75;21.00;;;;;9.76;77.57;101651.97;5031908;28;45869;-71
2021/10/25 06:08:18;;;;;;;;;37.25;32.75;;;;;9.83;77.78;101671.06;5032886;28;46057;-71
2021/10/25 06:10:44;;;;;;;;;26.25;21.25;;;;;9.87;77.47;101659.59;5032807;28;45249;-71
2021/10/25 06:13:14;;;;;;;;;21.50;18.75;;;;;9.88;77.52;101662.16;5016524;28;45359;-71
2021/10/25 06:15:41;;;;;;;;;25.25;19.25;;;;;9.88;77.62;101662.16;5035699;28;45389;-70
2021/10/25 06:18:09;;;;;;;;;28.00;16.50;;;;;9.91;77.64;101661.19;5036295;28;45672;-71
2021/10/25 06:20:37;;;;;;;;;18.00;17.50;;;;;9.93;77.34;101659.41;5035535;28;45945;-71
2021/10/25 06:23:12;;;;;;;;;28.25;22.75;;;;;9.88;77.44;101653.41;5035134;28;45658;-71
2021/10/25 06:25:38;;;;;;;;;25.25;19.50;;;;;9.84;77.14;101646.53;5035943;28;45334;-70
2021/10/25 06:28:04;;;;;;;;;24.00;21.00;;;;;9.88;77.61;101666.56;5036560;28;46180;-71
2021/10/25 06:30:30;;;;;;;;;24.25;22.00;;;;;9.86;77.64;101676.22;5035806;28;45967;-70
2021/10/25 06:32:56;;;;;;;;;19.50;18.00;;;;;9.85;77.59;101669.25;5036150;28;45366;-70
2021/10/25 06:35:25;;;;;;;;;29.75;26.75;;;;;9.84;77.84;101680.66;5036432;28;45477;-71
2021/10/25 06:38:06;;;;;;;;;23.75;19.00;;;;;9.80;78.09;101677.22;5034700;28;45449;-71
2021/10/25 06:40:31;;;;;;;;;26.25;19.00;;;;;9.83;77.93;101679.78;5035022;28;45484;-71
2021/10/25 06:42:57;;;;;;;;;25.50;19.50;;;;;9.82;78.01;101675.44;5036683;28;45601;-71
2021/10/25 06:45:23;;;;;;;;;23.75;19.25;;;;;9.84;78.08;101672.78;5035507;28;45344;-70
2021/10/25 06:47:50;;;;;;;;;23.75;23.00;;;;;9.90;78.07;101672.59;5034916;28;45526;-70
2021/10/25 06:50:19;;;;;;;;;22.00;21.50;;;;;9.89;78.20;101669.13;5017141;28;46046;-71
2021/10/25 06:52:45;;;;;;;;;21.50;19.75;;;;;9.96;78.10;101687.34;5034939;28;45458;-70
2021/10/25 06:55:10;;;;;;;;;24.25;17.50;;;;;9.93;78.42;101689.16;5035806;28;45288;-70
2021/10/25 06:57:36;;;;;;;;;26.25;21.00;;;;;10.00;78.55;101702.13;5035083;28;45791;-71
2021/10/25 07:00:08;;;;;;;;;28.00;21.25;;;;;10.03;78.65;101702.94;5034463;28;45508;-72
2021/10/25 07:02:34;;;;;;;;;24.25;22.00;;;;;10.05;78.50;101706.38;5013064;28;45440;-70
2021/10/25 07:05:00;;;;;;;;;24.50;23.50;;;;;10.07;78.79;101704.53;5033818;28;45542;-71
2021/10/25 07:07:27;;;;;;;;;21.50;18.00;;;;;10.06;78.66;101696.72;5032699;28;45758;-71
2021/10/25 07:09:55;;;;;;;;;25.25;20.50;;;;;10.11;78.34;101700.94;5033104;28;45793;-71
2021/10/25 07:12:21;;;;;;;;;27.75;20.50;;;;;10.06;79.01;101688.84;5031887;28;45688;-71
2021/10/25 07:14:50;;;;;;;;;22.00;19.25;;;;;10.18;78.68;101697.28;5032896;28;45600;-71
2021/10/25 08:00:42;;;;;;;;;16.50;15.75;;;;;10.59;80.05;101728.63;4990482;28;45754;-71
2021/10/25 08:08:08;;;;;;;;;17.75;17.50;;;;;10.62;81.23;101731.19;5034046;28;45475;-71
2021/10/25 08:10:39;;;;;;;;;23.00;18.50;;;;;10.66;81.22;101738.97;5032647;28;45571;-71
2021/10/25 08:13:12;;;;;;;;;26.75;21.25;;;;;10.69;81.49;101735.38;5034298;28;46076;-71
2021/10/25 08:15:44;;;;;;;;;27.25;20.75;;;;;10.73;82.51;101741.41;5031701;28;45433;-71
2021/10/25 08:18:30;;;;;;;;;23.00;20.00;;;;;10.73;81.51;101739.66;5033495;28;45452;-71
2021/10/25 08:20:56;;;;;;;;;26.00;19.50;;;;;10.74;81.68;101728.22;5032813;28;47003;-71
2021/10/25 08:23:22;;;;;;;;;22.50;22.00;;;;;10.82;81.16;101735.91;5032777;28;45459;-71
2021/10/25 08:25:47;;;;;;;;;22.75;20.50;;;;;10.80;81.39;101733.28;5033048;28;45475;-71
2021/10/25 08:28:14;;;;;;;;;28.50;23.50;;;;;10.86;82.05;101727.91;5034622;28;45387;-71
2021/10/25 08:30:39;;;;;;;;;29.75;24.50;;;;;10.90;81.34;101723.38;5032743;28;45495;-71
2021/10/25 08:36:36;;;;;;;;;26.00;19.00;;;;;10.89;81.25;101713.78;5032786;28;45400;-71
2021/10/25 08:41:10;;;;;;;;;31.25;26.25;;;;;10.98;81.34;101726.66;5031812;28;45939;-71
2021/10/25 08:43:37;;;;;;;;;25.75;24.50;;;;;11.00;81.15;101729.25;5032297;28;45644;-71
2021/10/25 08:46:06;;;;;;;;;30.50;25.00;;;;;11.06;80.95;101731.69;5033715;28;46158;-71
2021/10/25 08:48:32;;;;;;;;;28.75;26.00;;;;;11.11;81.33;101735.91;5032677;28;45387;-71
2021/10/25 08:50:58;;;;;;;;;30.25;26.75;;;;;11.15;80.99;101728.81;5033374;28;46021;-71
2021/10/25 08:53:24;;;;;;;;;30.75;24.25;;;;;11.24;81.18;101725.91;5012998;28;45400;-71
2021/10/25 08:55:51;;;;;;;;;26.75;24.25;;;;;11.33;81.38;101723.00;5033132;28;45489;-71
2021/10/25 08:58:17;;;;;;;;;29.25;26.00;;;;;11.45;81.34;101725.25;5034260;28;45724;-70
2021/10/25 09:00:47;;;;;;;;;29.50;23.50;;;;;11.49;81.09;101715.50;5032486;28;45504;-71
2021/10/25 09:03:12;;;;;;;;;30.25;26.25;;;;;11.69;80.91;101723.63;5032328;28;45871;-71
2021/10/25 09:05:39;;;;;;;;;23.25;18.75;;;;;11.81;80.75;101718.88;5033040;28;45418;-71
2021/10/25 09:08:10;;;;;;;;;24.75;23.25;;;;;11.95;80.74;101724.56;5033723;28;45441;-71
2021/10/25 09:10:44;;;;;;;;;29.00;23.00;;;;;12.04;80.11;101731.31;5033493;28;45637;-71
2021/10/25 09:13:17;;;;;;;;;28.50;23.75;;;;;12.12;80.26;101724.91;5033230;28;45846;-71
2021/10/25 09:15:53;;;;;;;;;27.00;21.50;;;;;12.21;79.93;101716.66;5033300;28;45931;-71
2021/10/25 09:18:24;;;;;;;;;27.75;22.75;;;;;12.31;79.59;101711.94;5033149;28;45324;-71
2021/10/25 09:20:58;;;;;;;;;27.25;22.50;;;;;12.37;79.65;101714.38;5031803;28;48383;-71
2021/10/25 09:23:28;;;;;;;;;29.25;23.50;;;;;12.45;79.52;101719.38;5017943;28;45400;-71
2021/10/25 09:26:21;;;;;;;;;25.00;21.50;;;;;12.47;79.22;101723.66;5027951;28;45305;-71
2021/10/25 09:28:55;;;;;;;;;29.50;24.00;;;;;12.45;78.97;101720.22;5032306;28;45451;-71
2021/10/25 09:31:25;;;;;;;;;29.25;23.00;;;;;12.48;79.34;101717.50;5033500;28;45461;-71
2021/10/25 09:34:10;;;;;;;;;36.00;25.25;;;;;12.52;79.34;101697.16;5032939;28;45458;-71
2021/10/25 09:36:43;;;;;;;;;24.25;23.75;;;;;12.87;80.26;101697.66;5032949;28;45535;-71
2021/10/25 09:39:24;;;;;;;;;35.25;26.50;;;;;13.61;78.88;101695.69;5033199;28;46577;-71
2021/10/25 09:49:55;;;;;;;;;30.75;25.50;;;;;14.70;74.90;101695.47;5020506;28;45315;-71
2021/10/25 09:52:29;;;;;;;;;33.75;27.50;;;;;14.69;75.20;101701.69;5037558;28;45427;-71
2021/10/25 09:54:59;;;;;;;;;28.50;23.75;;;;;14.66;74.55;101695.66;5036497;28;45466;-71
2021/10/25 09:57:38;;;;;;;;;28.75;25.50;;;;;14.55;74.42;101701.44;5035679;28;45457;-71
2021/10/25 10:00:05;;;;;;;;;26.75;23.25;;;;;14.39;74.70;101697.72;5029237;28;45403;-72
2021/10/25 10:02:31;;;;;;;;;31.50;26.75;;;;;14.29;74.91;101703.38;5036339;28;45526;-71
2021/10/25 10:05:00;;;;;;;;;40.50;29.00;;;;;14.23;74.98;101706.28;5036679;28;45498;-71
2021/10/25 10:07:26;;;;;;;;;32.75;27.25;;;;;14.21;75.16;101702.88;5036667;28;45568;-71
2021/10/25 10:09:53;;;;;;;;;30.25;25.25;;;;;14.17;75.35;101708.34;5035931;28;45488;-71
2021/10/25 10:12:20;;;;;;;;;31.25;24.25;;;;;14.15;75.97;101703.13;5035422;28;45430;-71
2021/10/25 10:14:51;;;;;;;;;32.50;27.00;;;;;14.14;75.42;101706.69;5033481;28;45876;-71
2021/10/25 10:17:28;;;;;;;;;34.25;27.75;;;;;14.13;75.68;101697.03;5025358;28;45378;-71
2021/10/25 10:19:57;;;;;;;;;30.00;26.00;;;;;14.29;76.08;101691.94;5019312;28;45612;-71
2021/10/25 10:22:24;;;;;;;;;34.25;28.75;;;;;14.54;75.92;101691.78;5034497;28;45383;-71
2021/10/25 10:24:50;;;;;;;;;26.00;21.25;;;;;14.68;75.22;101699.13;5036442;28;45393;-71
2021/10/25 10:27:23;;;;;;;;;30.25;23.75;;;;;14.58;74.67;101702.16;5032759;28;45464;-71
2021/10/25 10:29:54;;;;;;;;;27.25;23.25;;;;;14.52;75.06;101706.88;5035494;28;45348;-71
2021/10/25 10:32:21;;;;;;;;;32.00;26.50;;;;;14.44;74.99;101720.38;5035007;28;46170;-71
2021/10/25 10:34:49;;;;;;;;;30.25;27.00;;;;;14.45;75.46;101715.94;5035310;28;45535;-71
2021/10/25 10:37:19;;;;;;;;;30.00;26.25;;;;;14.56;75.88;101716.38;5036473;28;45463;-71
2021/10/25 10:39:57;;;;;;;;;31.50;27.00;;;;;14.57;75.16;101702.25;5035880;28;45314;-71
2021/10/25 10:42:27;;;;;;;;;29.75;26.00;;;;;14.69;74.93;101720.22;5036059;28;46043;-71
2021/10/25 10:45:00;;;;;;;;;31.00;26.00;;;;;14.68;74.96;101722.94;5035018;28;45901;-71
2021/10/25 10:47:28;;;;;;;;;30.00;25.00;;;;;14.64;75.10;101716.03;5036778;28;45336;-71
2021/10/25 10:49:58;;;;;;;;;32.25;26.75;;;;;14.61;74.88;101714.38;5042374;28;45462;-71
2021/10/25 10:52:37;;;;;;;;;34.25;29.00;;;;;14.68;75.39;101720.28;5036148;28;45455;-71
2021/10/25 10:55:17;;;;;;;;;24.25;24.00;;;;;14.69;75.03;101714.91;5035993;28;45359;-70
2021/10/25 11:00:23;;;;;;;;;29.25;26.75;;;;;14.67;75.44;101718.53;5034885;28;45334;-71
2021/10/25 11:02:50;;;;;;;;;34.25;27.25;;;;;14.64;75.26;101719.56;5035007;28;46064;-71
2021/10/25 11:05:15;;;;;;;;;28.75;25.50;;;;;14.61;75.63;101720.53;5034432;28;45947;-71
2021/10/25 11:07:41;;;;;;;;;32.25;25.50;;;;;14.62;75.68;101718.78;5035651;28;48056;-71
2021/10/25 11:10:10;;;;;;;;;28.00;24.50;;;;;14.56;75.31;101719.91;5047279;28;45695;-71
2021/10/25 11:12:41;;;;;;;;;30.00;26.00;;;;;14.55;75.55;101712.88;5036639;28;46159;-72
2021/10/25 11:15:10;;;;;;;;;28.75;26.75;;;;;14.54;75.82;101716.44;5034630;28;45887;-71
2021/10/25 11:17:36;;;;;;;;;32.00;26.25;;;;;14.65;76.06;101715.97;5033818;28;45353;-72
2021/10/25 11:20:02;;;;;;;;;29.50;26.75;;;;;14.73;75.96;101720.94;5034644;28;45446;-70
2021/10/25 11:22:35;;;;;;;;;31.00;27.00;;;;;14.69;75.89;101709.63;5035166;28;45446;-70
2021/10/25 11:25:04;;;;;;;;;30.25;25.00;;;;;14.59;76.45;101710.94;5033717;28;45977;-71
2021/10/25 11:27:31;;;;;;;;;28.50;25.75;;;;;14.56;76.21;101722.53;5030524;28;45513;-70
2021/10/25 11:30:23;;;;;;;;;22.25;20.75;;;;;14.36;76.30;101707.50;5016880;28;45598;-70
2021/10/25 11:32:49;;;;;;;;;31.50;28.25;;;;;14.32;76.82;101705.06;5030067;28;46105;-70
2021/10/25 11:35:14;;;;;;;;;33.75;28.00;;;;;14.32;77.06;101708.56;5034915;28;45443;-70
2021/10/25 11:37:49;;;;;;;;;28.50;28.00;;;;;14.35;77.46;101711.09;5035103;28;45672;-72
2021/10/25 11:40:18;;;;;;;;;34.25;29.00;;;;;14.34;77.86;101711.97;5034992;28;45452;-71
2021/10/25 11:42:45;;;;;;;;;29.00;21.25;;;;;14.39;77.25;101714.44;5033305;28;46440;-72
2021/10/25 11:45:17;;;;;;;;;18.25;17.00;;;;;14.35;77.03;101723.41;5034791;28;45319;-71
2021/10/25 11:47:48;;;;;;;;;16.75;14.50;;;;;14.32;77.46;101721.78;5034994;28;45344;-72
2021/10/25 11:50:15;;;;;;;;;21.50;17.00;;;;;14.28;77.75;101724.63;5035167;28;45344;-72
2021/10/25 11:52:49;;;;;;;;;16.25;14.75;;;;;14.25;77.59;101717.69;5034240;28;45528;-72
2021/10/25 11:55:17;;;;;;;;;20.25;16.50;;;;;14.24;77.85;101718.59;5034644;28;45491;-72
2021/10/25 11:57:53;;;;;;;;;17.00;15.00;;;;;14.25;77.74;101716.81;5031792;28;45581;-71
2021/10/25 12:00:19;;;;;;;;;16.25;15.00;;;;;14.26;77.33;101714.13;5034203;28;45552;-72
2021/10/25 12:02:46;;;;;;;;;19.00;13.25;;;;;14.26;77.60;101716.75;5032447;28;45500;-72
2021/10/25 12:05:17;;;;;;;;;18.25;13.00;;;;;14.31;77.61;101713.91;5033991;28;45751;-74
2021/10/25 12:07:54;;;;;;;;;22.00;17.00;;;;;14.36;77.98;101715.44;5033617;28;45532;-71
2021/10/25 12:10:21;;;;;;;;;19.75;15.50;;;;;14.17;77.98;101674.84;5032538;28;45559;-72
2021/10/25 12:12:51;;;;;;;;;16.50;13.25;;;;;14.45;78.09;101695.66;5028972;28;45772;-72
2021/10/25 12:15:18;;;;;;;;;21.50;14.75;;;;;14.56;77.99;101709.31;5030694;28;45991;-72
2021/10/25 12:17:45;;;;;;;;;18.25;15.25;;;;;14.56;77.47;101704.03;5031427;28;45631;-72
2021/10/25 12:20:12;;;;;;;;;22.50;18.00;;;;;14.56;77.25;101711.06;5030942;28;45588;-72
2021/10/25 12:22:42;;;;;;;;;18.50;16.50;;;;;14.60;77.69;101710.03;5030748;28;46074;-72
2021/10/25 12:25:08;;;;;;;;;20.25;15.50;;;;;14.61;77.27;101687.94;5028775;28;45834;-72
2021/10/25 12:27:41;;;;;;;;;17.75;14.50;;;;;14.79;77.41;101689.75;5033953;28;46434;-72
2021/10/25 12:30:12;;;;;;;;;15.25;11.50;;;;;15.10;76.81;101691.84;5036927;28;45471;-72
2021/10/25 12:32:51;;;;;;;;;17.75;14.00;;;;;15.42;76.52;101691.28;5033756;28;45525;-72
2021/10/25 12:35:27;;;;;;;;;15.75;14.00;;;;;15.53;76.14;101663.31;5031104;28;45466;-72
2021/10/25 12:37:59;;;;;;;;;14.50;13.75;;;;;15.78;75.57;101670.97;5039423;28;45574;-72
2021/10/25 12:40:24;;;;;;;;;18.00;15.00;;;;;15.88;75.22;101679.31;5028352;28;45427;-72
2021/10/25 12:42:49;;;;;;;;;19.25;16.25;;;;;15.86;75.32;101642.25;5032633;28;46478;-72
2021/10/25 12:45:18;;;;;;;;;16.25;15.00;;;;;16.07;74.70;101660.66;5032248;28;51586;-72
2021/10/25 12:47:44;;;;;;;;;14.50;13.75;;;;;16.10;74.34;101657.88;5031821;28;47479;-73
2021/10/25 12:50:13;;;;;;;;;18.00;14.75;;;;;16.09;74.14;101659.66;5034136;28;45438;-71
2021/10/25 12:52:40;;;;;;;;;20.25;15.75;;;;;16.04;73.86;101650.22;5034051;28;46057;-72
2021/10/25 12:55:05;;;;;;;;;18.00;15.75;;;;;16.04;73.87;101663.50;5033792;28;45315;-72
2021/10/25 12:57:33;;;;;;;;;14.50;14.50;;;;;15.97;73.71;101660.25;5033596;28;45671;-72